sensor_id;sensor_type;location;lat;lon;timestamp;pressure;altitude;pressure_sealevel;temperature;humidity
37142;BME280;23041;49.816;20.092;2022-09-30T00:00:29;96920.47;;;10.81;70.86
37142;BME280;23041;49.816;20.092;2022-09-30T00:02:58;96931.34;;;10.84;70.85
37142;BME280;23041;49.816;20.092;2022-09-30T00:05:24;96921.73;;;10.84;70.83
37142;BME280;23041;49.816;20.092;2022-09-30T00:07:50;96919.59;;;10.84;70.80
37142;BME280;23041;49.816;20.092;2022-09-30T00:10:17;96912.13;;;10.84;70.80
37142;BME280;23041;49.816;20.092;2022-09-30T00:12:44;96901.07;;;10.75;70.81
37142;BME280;23041;49.816;20.092;2022-09-30T00:15:11;96897.38;;;10.69;70.84
37142;BME280;23041;49.816;20.092;2022-09-30T00:17:37;96903.01;;;10.66;70.85
37142;BME280;23041;49.816;20.092;2022-09-30T00:20:05;96905.45;;;10.68;70.86
37142;BME280;23041;49.816;20.092;2022-09-30T00:22:33;96914.03;;;10.75;70.90
37142;BME280;23041;49.816;20.092;2022-09-30T00:24:59;96905.52;;;10.77;70.90
37142;BME280;23041;49.816;20.092;2022-09-30T00:27:25;96903.67;;;10.79;70.88
37142;BME280;23041;49.816;20.092;2022-09-30T00:29:52;96899.27;;;10.77;70.90
37142;BME280;23041;49.816;20.092;2022-09-30T00:32:19;96897.87;;;10.72;70.88
37142;BME280;23041;49.816;20.092;2022-09-30T00:34:46;96895.84;;;10.68;70.90
37142;BME280;23041;49.816;20.092;2022-09-30T00:37:12;96898.10;;;10.60;70.90
37142;BME280;23041;49.816;20.092;2022-09-30T00:39:40;96899.19;;;10.41;70.92
37142;BME280;23041;49.816;20.092;2022-09-30T00:42:10;96903.47;;;10.42;70.95
37142;BME280;23041;49.816;20.092;2022-09-30T00:44:51;96902.04;;;10.38;71.01
37142;BME280;23041;49.816;20.092;2022-09-30T00:53:15;96921.54;;;10.35;71.07
37142;BME280;23041;49.816;20.092;2022-09-30T01:01:20;96930.03;;;10.15;71.16
37142;BME280;23041;49.816;20.092;2022-09-30T01:04:03;96917.56;;;10.02;71.19
37142;BME280;23041;49.816;20.092;2022-09-30T01:06:31;96927.85;;;9.93;71.26
37142;BME280;23041;49.816;20.092;2022-09-30T01:08:57;96927.08;;;9.93;71.33
37142;BME280;23041;49.816;20.092;2022-09-30T01:11:24;96917.92;;;9.91;71.39
37142;BME280;23041;49.816;20.092;2022-09-30T01:13:55;96919.66;;;9.98;71.47
37142;BME280;23041;49.816;20.092;2022-09-30T01:25:14;96904.39;;;9.92;71.59
37142;BME280;23041;49.816;20.092;2022-09-30T01:42:45;96937.05;;;9.99;71.98
37142;BME280;23041;49.816;20.092;2022-09-30T01:45:34;96927.69;;;10.09;72.02
37142;BME280;23041;49.816;20.092;2022-09-30T01:48:31;96930.99;;;10.17;72.08
37142;BME280;23041;49.816;20.092;2022-09-30T01:51:06;96938.65;;;10.22;72.10
37142;BME280;23041;49.816;20.092;2022-09-30T01:53:46;96933.73;;;10.17;72.11
37142;BME280;23041;49.816;20.092;2022-09-30T01:56:24;96934.50;;;10.17;72.14
37142;BME280;23041;49.816;20.092;2022-09-30T02:01:43;96905.82;;;9.84;72.18
37142;BME280;23041;49.816;20.092;2022-09-30T02:04:14;96903.41;;;9.86;72.22
37142;BME280;23041;49.816;20.092;2022-09-30T02:06:59;96893.86;;;9.91;72.27
37142;BME280;23041;49.816;20.092;2022-09-30T02:09:32;96894.25;;;10.02;72.31
37142;BME280;23041;49.816;20.092;2022-09-30T02:12:10;96898.53;;;10.03;72.35
37142;BME280;23041;49.816;20.092;2022-09-30T02:14:54;96898.23;;;10.01;72.34
37142;BME280;23041;49.816;20.092;2022-09-30T02:17:22;96902.25;;;9.92;72.33
37142;BME280;23041;49.816;20.092;2022-09-30T02:20:02;96908.30;;;9.87;72.35
37142;BME280;23041;49.816;20.092;2022-09-30T02:22:39;96903.05;;;9.79;72.35
37142;BME280;23041;49.816;20.092;2022-09-30T02:25:25;96907.59;;;9.78;72.36
37142;BME280;23041;49.816;20.092;2022-09-30T02:27:55;96901.44;;;9.69;72.38
37142;BME280;23041;49.816;20.092;2022-09-30T02:30:23;96901.84;;;9.51;72.45
37142;BME280;23041;49.816;20.092;2022-09-30T02:32:52;96914.21;;;9.55;72.50
37142;BME280;23041;49.816;20.092;2022-09-30T02:35:28;96919.52;;;9.54;72.56
37142;BME280;23041;49.816;20.092;2022-09-30T02:38:02;96921.61;;;9.63;72.61
37142;BME280;23041;49.816;20.092;2022-09-30T02:43:17;96925.53;;;9.74;72.67
37142;BME280;23041;49.816;20.092;2022-09-30T02:45:59;96929.58;;;9.82;72.68
37142;BME280;23041;49.816;20.092;2022-09-30T02:48:29;96928.28;;;9.92;72.72
37142;BME280;23041;49.816;20.092;2022-09-30T02:51:00;96938.25;;;9.98;72.77
37142;BME280;23041;49.816;20.092;2022-09-30T02:53:38;96929.63;;;10.04;72.79
37142;BME280;23041;49.816;20.092;2022-09-30T02:58:50;96921.80;;;9.98;72.90
37142;BME280;23041;49.816;20.092;2022-09-30T03:01:18;96913.74;;;9.99;72.94
37142;BME280;23041;49.816;20.092;2022-09-30T03:03:53;96921.77;;;10.11;72.95
37142;BME280;23041;49.816;20.092;2022-09-30T03:06:21;96926.11;;;10.16;72.97
37142;BME280;23041;49.816;20.092;2022-09-30T03:08:50;96917.58;;;10.19;72.97
37142;BME280;23041;49.816;20.092;2022-09-30T03:11:21;96915.71;;;10.16;72.95
37142;BME280;23041;49.816;20.092;2022-09-30T03:28:29;96923.44;;;10.13;73.08
37142;BME280;23041;49.816;20.092;2022-09-30T03:31:24;96926.17;;;10.26;73.07
37142;BME280;23041;49.816;20.092;2022-09-30T03:36:57;96931.58;;;10.34;73.07
37142;BME280;23041;49.816;20.092;2022-09-30T03:42:19;96936.44;;;10.30;73.06
37142;BME280;23041;49.816;20.092;2022-09-30T03:47:36;96939.08;;;10.20;73.09
37142;BME280;23041;49.816;20.092;2022-09-30T03:50:06;96947.14;;;10.19;73.11
37142;BME280;23041;49.816;20.092;2022-09-30T03:52:35;96952.63;;;10.19;73.13
37142;BME280;23041;49.816;20.092;2022-09-30T03:55:04;96952.59;;;10.32;73.12
37142;BME280;23041;49.816;20.092;2022-09-30T03:57:34;96955.09;;;10.39;73.12
37142;BME280;23041;49.816;20.092;2022-09-30T04:00:02;96955.28;;;10.45;73.14
37142;BME280;23041;49.816;20.092;2022-09-30T04:02:30;96954.52;;;10.44;73.13
37142;BME280;23041;49.816;20.092;2022-09-30T04:04:56;96953.17;;;10.49;73.14
37142;BME280;23041;49.816;20.092;2022-09-30T04:07:24;96947.30;;;10.38;73.14
37142;BME280;23041;49.816;20.092;2022-09-30T04:09:50;96947.96;;;10.42;73.18
37142;BME280;23041;49.816;20.092;2022-09-30T04:12:16;96948.09;;;10.43;73.22
37142;BME280;23041;49.816;20.092;2022-09-30T04:14:44;96955.38;;;10.54;73.23
37142;BME280;23041;49.816;20.092;2022-09-30T04:17:10;96950.98;;;10.61;73.25
37142;BME280;23041;49.816;20.092;2022-09-30T04:19:37;96956.00;;;10.58;73.23
37142;BME280;23041;49.816;20.092;2022-09-30T04:22:06;96957.81;;;10.56;73.18
37142;BME280;23041;49.816;20.092;2022-09-30T04:24:34;96961.93;;;10.56;73.18
37142;BME280;23041;49.816;20.092;2022-09-30T04:27:01;96960.26;;;10.54;73.18
37142;BME280;23041;49.816;20.092;2022-09-30T04:29:28;96946.28;;;10.44;73.17
37142;BME280;23041;49.816;20.092;2022-09-30T04:31:55;96944.86;;;10.35;73.21
37142;BME280;23041;49.816;20.092;2022-09-30T04:34:21;96951.28;;;10.37;73.22
37142;BME280;23041;49.816;20.092;2022-09-30T04:36:48;96956.46;;;10.39;73.27
37142;BME280;23041;49.816;20.092;2022-09-30T04:39:14;96960.66;;;10.48;73.28
37142;BME280;23041;49.816;20.092;2022-09-30T04:41:41;96959.92;;;10.52;73.27
37142;BME280;23041;49.816;20.092;2022-09-30T04:44:08;96959.79;;;10.56;73.26
37142;BME280;23041;49.816;20.092;2022-09-30T04:46:35;96965.77;;;10.59;73.25
37142;BME280;23041;49.816;20.092;2022-09-30T04:49:03;96965.77;;;10.59;73.25
37142;BME280;23041;49.816;20.092;2022-09-30T04:51:30;96967.42;;;10.56;73.24
37142;BME280;23041;49.816;20.092;2022-09-30T04:53:57;96960.00;;;10.44;73.24
37142;BME280;23041;49.816;20.092;2022-09-30T04:56:26;96965.90;;;10.38;73.25
37142;BME280;23041;49.816;20.092;2022-09-30T04:58:53;96964.55;;;10.43;73.28
37142;BME280;23041;49.816;20.092;2022-09-30T05:01:22;96969.50;;;10.48;73.31
37142;BME280;23041;49.816;20.092;2022-09-30T05:03:49;96975.54;;;10.60;73.32
37142;BME280;23041;49.816;20.092;2022-09-30T05:06:15;96968.41;;;10.67;73.33
37142;BME280;23041;49.816;20.092;2022-09-30T05:08:42;96972.88;;;10.74;73.32
37142;BME280;23041;49.816;20.092;2022-09-30T05:11:13;96968.95;;;10.79;73.33
37142;BME280;23041;49.816;20.092;2022-09-30T05:13:40;96971.58;;;10.83;73.34
37142;BME280;23041;49.816;20.092;2022-09-30T05:16:07;96968.39;;;10.84;73.33
37142;BME280;23041;49.816;20.092;2022-09-30T05:18:35;96967.92;;;10.86;73.34
37142;BME280;23041;49.816;20.092;2022-09-30T05:21:02;96961.30;;;10.74;73.36
37142;BME280;23041;49.816;20.092;2022-09-30T05:23:30;96968.05;;;10.78;73.38
37142;BME280;23041;49.816;20.092;2022-09-30T05:25:59;96964.39;;;10.81;73.40
37142;BME280;23041;49.816;20.092;2022-09-30T05:28:26;96980.47;;;10.91;73.40
37142;BME280;23041;49.816;20.092;2022-09-30T05:30:58;96983.13;;;10.99;73.37
37142;BME280;23041;49.816;20.092;2022-09-30T05:33:28;96988.96;;;11.06;73.33
37142;BME280;23041;49.816;20.092;2022-09-30T05:36:08;96995.52;;;11.09;73.34
37142;BME280;23041;49.816;20.092;2022-09-30T05:38:32;96996.27;;;11.04;73.30
37142;BME280;23041;49.816;20.092;2022-09-30T05:41:07;96991.01;;;10.93;73.24
37142;BME280;23041;49.816;20.092;2022-09-30T05:43:37;96982.84;;;10.80;73.19
37142;BME280;23041;49.816;20.092;2022-09-30T05:46:04;96984.65;;;10.79;73.20
37142;BME280;23041;49.816;20.092;2022-09-30T05:48:32;96985.91;;;10.82;73.21
37142;BME280;23041;49.816;20.092;2022-09-30T05:50:59;96986.08;;;10.83;73.22
37142;BME280;23041;49.816;20.092;2022-09-30T05:53:28;96993.17;;;10.98;73.19
37142;BME280;23041;49.816;20.092;2022-09-30T05:55:56;97006.20;;;11.07;73.17
37142;BME280;23041;49.816;20.092;2022-09-30T05:58:22;97003.34;;;11.15;73.14
37142;BME280;23041;49.816;20.092;2022-09-30T06:00:49;97010.26;;;11.19;73.09
37142;BME280;23041;49.816;20.092;2022-09-30T06:03:17;97009.34;;;11.22;73.08
37142;BME280;23041;49.816;20.092;2022-09-30T06:05:43;97002.12;;;11.16;73.04
37142;BME280;23041;49.816;20.092;2022-09-30T06:08:11;97009.30;;;11.13;73.04
37142;BME280;23041;49.816;20.092;2022-09-30T06:10:42;97016.17;;;11.13;73.03
37142;BME280;23041;49.816;20.092;2022-09-30T06:13:10;97028.11;;;11.19;73.02
37142;BME280;23041;49.816;20.092;2022-09-30T06:15:36;97025.97;;;11.19;72.97
37142;BME280;23041;49.816;20.092;2022-09-30T06:18:04;97017.89;;;11.20;72.94
37142;BME280;23041;49.816;20.092;2022-09-30T06:20:30;97020.82;;;11.25;72.95
37142;BME280;23041;49.816;20.092;2022-09-30T06:22:58;97018.98;;;11.27;72.94
37142;BME280;23041;49.816;20.092;2022-09-30T06:25:29;97016.59;;;11.07;72.93
37142;BME280;23041;49.816;20.092;2022-09-30T06:27:57;97014.89;;;11.05;72.95
37142;BME280;23041;49.816;20.092;2022-09-30T06:30:24;97016.45;;;11.11;72.98
37142;BME280;23041;49.816;20.092;2022-09-30T06:32:50;97020.94;;;11.22;73.01
37142;BME280;23041;49.816;20.092;2022-09-30T06:35:18;97013.02;;;11.24;73.00
37142;BME280;23041;49.816;20.092;2022-09-30T06:37:49;97015.10;;;11.41;73.02
37142;BME280;23041;49.816;20.092;2022-09-30T06:40:16;97015.12;;;11.46;73.04
37142;BME280;23041;49.816;20.092;2022-09-30T06:42:43;97015.61;;;11.49;73.06
37142;BME280;23041;49.816;20.092;2022-09-30T06:45:11;97009.45;;;11.45;73.09
37142;BME280;23041;49.816;20.092;2022-09-30T06:47:37;97004.63;;;11.54;73.17
37142;BME280;23041;49.816;20.092;2022-09-30T06:50:04;97016.12;;;11.61;73.19
37142;BME280;23041;49.816;20.092;2022-09-30T06:52:31;97031.78;;;11.73;73.19
37142;BME280;23041;49.816;20.092;2022-09-30T06:54:58;97031.27;;;11.70;73.15
37142;BME280;23041;49.816;20.092;2022-09-30T06:57:24;97025.44;;;11.68;73.11
37142;BME280;23041;49.816;20.092;2022-09-30T06:59:52;97020.78;;;11.73;73.10
37142;BME280;23041;49.816;20.092;2022-09-30T07:02:19;97016.23;;;11.58;73.06
37142;BME280;23041;49.816;20.092;2022-09-30T07:04:46;97020.80;;;11.52;73.07
37142;BME280;23041;49.816;20.092;2022-09-30T07:07:13;97017.86;;;11.46;73.07
37142;BME280;23041;49.816;20.092;2022-09-30T07:09:40;97017.59;;;11.53;73.09
37142;BME280;23041;49.816;20.092;2022-09-30T07:12:07;97021.80;;;11.71;73.08
37142;BME280;23041;49.816;20.092;2022-09-30T07:14:34;97023.23;;;11.80;73.08
37142;BME280;23041;49.816;20.092;2022-09-30T07:17:02;97019.11;;;11.80;73.05
37142;BME280;23041;49.816;20.092;2022-09-30T07:19:30;97023.11;;;11.84;73.03
37142;BME280;23041;49.816;20.092;2022-09-30T07:21:56;97025.70;;;11.88;73.00
37142;BME280;23041;49.816;20.092;2022-09-30T07:24:25;97017.00;;;11.84;73.01
37142;BME280;23041;49.816;20.092;2022-09-30T07:26:52;97026.95;;;11.91;73.01
37142;BME280;23041;49.816;20.092;2022-09-30T07:29:18;97036.77;;;12.06;72.98
37142;BME280;23041;49.816;20.092;2022-09-30T07:31:44;97040.17;;;12.19;72.92
37142;BME280;23041;49.816;20.092;2022-09-30T07:34:11;97047.38;;;12.25;72.90
37142;BME280;23041;49.816;20.092;2022-09-30T07:36:39;97049.03;;;12.18;72.82
37142;BME280;23041;49.816;20.092;2022-09-30T07:39:08;97052.23;;;12.17;72.73
37142;BME280;23041;49.816;20.092;2022-09-30T07:41:37;97046.12;;;12.17;72.68
37142;BME280;23041;49.816;20.092;2022-09-30T07:44:09;97035.71;;;12.08;72.64
37142;BME280;23041;49.816;20.092;2022-09-30T07:46:38;97038.63;;;12.18;72.64
37142;BME280;23041;49.816;20.092;2022-09-30T07:49:07;97040.78;;;12.27;72.60
37142;BME280;23041;49.816;20.092;2022-09-30T07:51:39;97040.20;;;12.37;72.54
37142;BME280;23041;49.816;20.092;2022-09-30T07:54:10;97048.95;;;12.45;72.47
37142;BME280;23041;49.816;20.092;2022-09-30T07:56:37;97048.02;;;12.39;72.42
37142;BME280;23041;49.816;20.092;2022-09-30T07:59:05;97049.84;;;12.37;72.35
37142;BME280;23041;49.816;20.092;2022-09-30T08:01:31;97046.48;;;12.33;72.28
37142;BME280;23041;49.816;20.092;2022-09-30T08:04:02;97047.38;;;12.25;72.26
37142;BME280;23041;49.816;20.092;2022-09-30T08:06:31;97041.58;;;12.37;72.26
37142;BME280;23041;49.816;20.092;2022-09-30T08:09:03;97045.42;;;12.53;72.26
37142;BME280;23041;49.816;20.092;2022-09-30T08:11:32;97046.06;;;12.62;72.22
37142;BME280;23041;49.816;20.092;2022-09-30T08:13:59;97052.03;;;12.74;72.19
37142;BME280;23041;49.816;20.092;2022-09-30T08:16:26;97054.76;;;12.69;72.12
37142;BME280;23041;49.816;20.092;2022-09-30T08:18:53;97052.77;;;12.70;72.08
37142;BME280;23041;49.816;20.092;2022-09-30T08:21:21;97052.32;;;12.76;72.02
37142;BME280;23041;49.816;20.092;2022-09-30T08:23:47;97049.86;;;12.64;71.98
37142;BME280;23041;49.816;20.092;2022-09-30T08:26:14;97056.45;;;12.67;71.95
37142;BME280;23041;49.816;20.092;2022-09-30T08:28:42;97056.93;;;12.75;71.95
37142;BME280;23041;49.816;20.092;2022-09-30T08:31:13;97061.81;;;12.84;71.92
37142;BME280;23041;49.816;20.092;2022-09-30T08:33:41;97066.86;;;12.95;71.86
37142;BME280;23041;49.816;20.092;2022-09-30T08:36:22;97062.13;;;13.04;71.82
37142;BME280;23041;49.816;20.092;2022-09-30T08:38:50;97064.73;;;13.17;71.76
37142;BME280;23041;49.816;20.092;2022-09-30T08:53:07;97070.56;;;13.28;71.60
37142;BME280;23041;49.816;20.092;2022-09-30T08:55:40;97069.48;;;13.26;71.58
37142;BME280;23041;49.816;20.092;2022-09-30T08:58:32;97049.72;;;13.23;71.52
37142;BME280;23041;49.816;20.092;2022-09-30T09:03:53;97061.80;;;13.39;71.53
37142;BME280;23041;49.816;20.092;2022-09-30T09:12:37;97061.34;;;13.45;71.37
37142;BME280;23041;49.816;20.092;2022-09-30T09:20:58;97052.16;;;13.39;71.36
37142;BME280;23041;49.816;20.092;2022-09-30T09:23:26;97059.20;;;13.40;71.34
37142;BME280;23041;49.816;20.092;2022-09-30T09:25:55;97061.45;;;13.55;71.33
37142;BME280;23041;49.816;20.092;2022-09-30T09:30:56;97071.78;;;13.83;71.29
37142;BME280;23041;49.816;20.092;2022-09-30T09:33:27;97081.44;;;13.83;71.24
37142;BME280;23041;49.816;20.092;2022-09-30T09:36:17;97078.50;;;13.91;71.21
37142;BME280;23041;49.816;20.092;2022-09-30T09:42:05;97077.39;;;14.02;71.13
37142;BME280;23041;49.816;20.092;2022-09-30T09:47:21;97065.28;;;14.04;71.08
37142;BME280;23041;49.816;20.092;2022-09-30T09:49:58;97080.80;;;14.25;71.05
37142;BME280;23041;49.816;20.092;2022-09-30T09:55:21;97090.98;;;14.52;70.96
37142;BME280;23041;49.816;20.092;2022-09-30T09:58:09;97093.55;;;14.56;70.87
37142;BME280;23041;49.816;20.092;2022-09-30T10:00:39;97096.78;;;14.54;70.80
37142;BME280;23041;49.816;20.092;2022-09-30T10:03:23;97095.12;;;14.52;70.72
37142;BME280;23041;49.816;20.092;2022-09-30T10:06:06;97102.80;;;14.48;70.65
37142;BME280;23041;49.816;20.092;2022-09-30T10:08:37;97099.02;;;14.32;70.59
37142;BME280;23041;49.816;20.092;2022-09-30T10:11:23;97104.11;;;14.29;70.56
37142;BME280;23041;49.816;20.092;2022-09-30T10:13:56;97113.28;;;14.30;70.49
37142;BME280;23041;49.816;20.092;2022-09-30T10:16:34;97114.81;;;14.31;70.40
37142;BME280;23041;49.816;20.092;2022-09-30T10:21:43;97119.66;;;14.17;70.23
37142;BME280;23041;49.816;20.092;2022-09-30T10:24:27;97121.03;;;14.13;70.19
37142;BME280;23041;49.816;20.092;2022-09-30T10:26:55;97123.66;;;14.07;70.16
37142;BME280;23041;49.816;20.092;2022-09-30T10:29:28;97114.06;;;13.89;70.13
37142;BME280;23041;49.816;20.092;2022-09-30T10:32:00;97115.63;;;13.81;70.15
37142;BME280;23041;49.816;20.092;2022-09-30T10:34:33;97113.78;;;13.87;70.20
37142;BME280;23041;49.816;20.092;2022-09-30T10:37:07;97120.17;;;13.98;70.25
37142;BME280;23041;49.816;20.092;2022-09-30T10:39:38;97125.94;;;14.18;70.29
37142;BME280;23041;49.816;20.092;2022-09-30T10:44:45;97133.07;;;14.34;70.29
37142;BME280;23041;49.816;20.092;2022-09-30T10:47:22;97130.59;;;14.45;70.31
37142;BME280;23041;49.816;20.092;2022-09-30T10:49:55;97129.33;;;14.50;70.30
37142;BME280;23041;49.816;20.092;2022-09-30T10:52:29;97124.15;;;14.43;70.29
37142;BME280;23041;49.816;20.092;2022-09-30T10:55:00;97124.61;;;14.46;70.27
37142;BME280;23041;49.816;20.092;2022-09-30T10:57:33;97132.95;;;14.65;70.20
37142;BME280;23041;49.816;20.092;2022-09-30T11:00:11;97133.07;;;14.66;70.09
37142;BME280;23041;49.816;20.092;2022-09-30T11:02:43;97132.88;;;14.75;70.00
37142;BME280;23041;49.816;20.092;2022-09-30T11:05:31;97133.68;;;14.94;69.93
37142;BME280;23041;49.816;20.092;2022-09-30T11:08:21;97134.27;;;15.18;69.89
37142;BME280;23041;49.816;20.092;2022-09-30T11:11:07;97123.64;;;15.21;69.79
37142;BME280;23041;49.816;20.092;2022-09-30T11:22:05;97126.46;;;15.69;69.43
37142;BME280;23041;49.816;20.092;2022-09-30T11:24:53;97129.92;;;15.79;69.23
37142;BME280;23041;49.816;20.092;2022-09-30T11:31:35;97133.64;;;15.90;68.93
37142;BME280;23041;49.816;20.092;2022-09-30T11:33:28;97125.94;;;15.75;68.77
37142;BME280;23041;49.816;20.092;2022-09-30T11:36:11;97133.87;;;15.82;68.69
37142;BME280;23041;49.816;20.092;2022-09-30T11:41:37;97146.30;;;15.97;68.43
37142;BME280;23041;49.816;20.092;2022-09-30T11:44:27;97140.39;;;16.04;68.35
37142;BME280;23041;49.816;20.092;2022-09-30T11:58:24;97141.82;;;15.32;68.07
37142;BME280;23041;49.816;20.092;2022-09-30T12:00:57;97151.39;;;15.26;68.07
37142;BME280;23041;49.816;20.092;2022-09-30T12:03:34;97154.40;;;15.13;68.04
37142;BME280;23041;49.816;20.092;2022-09-30T12:06:08;97151.06;;;15.09;68.06
37142;BME280;23041;49.816;20.092;2022-09-30T12:08:39;97159.93;;;15.13;68.11
37142;BME280;23041;49.816;20.092;2022-09-30T12:11:20;97154.12;;;15.11;68.16
37142;BME280;23041;49.816;20.092;2022-09-30T12:13:53;97148.16;;;14.85;68.20
37142;BME280;23041;49.816;20.092;2022-09-30T12:16:23;97150.53;;;14.73;68.24
37142;BME280;23041;49.816;20.092;2022-09-30T12:18:54;97159.42;;;14.77;68.35
37142;BME280;23041;49.816;20.092;2022-09-30T12:24:24;97153.91;;;14.96;68.54
37142;BME280;23041;49.816;20.092;2022-09-30T12:26:57;97161.39;;;15.04;68.63
37142;BME280;23041;49.816;20.092;2022-09-30T12:29:35;97166.72;;;15.13;68.66
37142;BME280;23041;49.816;20.092;2022-09-30T12:48:51;97182.03;;;14.94;68.72
37142;BME280;23041;49.816;20.092;2022-09-30T12:54:00;97174.47;;;14.76;68.83
37142;BME280;23041;49.816;20.092;2022-09-30T12:56:34;97179.77;;;14.84;68.89
37142;BME280;23041;49.816;20.092;2022-09-30T12:59:02;97187.56;;;14.94;68.89
37142;BME280;23041;49.816;20.092;2022-09-30T13:01:30;97193.75;;;15.08;68.92
37142;BME280;23041;49.816;20.092;2022-09-30T13:09:29;97189.98;;;15.64;68.99
37142;BME280;23041;49.816;20.092;2022-09-30T13:14:35;97213.50;;;15.98;68.94
37142;BME280;23041;49.816;20.092;2022-09-30T13:19:48;97221.63;;;16.16;68.68
37142;BME280;23041;49.816;20.092;2022-09-30T13:38:20;97242.33;;;15.53;68.06
37142;BME280;23041;49.816;20.092;2022-09-30T13:43:55;97227.63;;;14.90;68.03
37142;BME280;23041;49.816;20.092;2022-09-30T13:46:38;97222.75;;;14.89;68.15
37142;BME280;23041;49.816;20.092;2022-09-30T13:49:37;97233.48;;;15.16;68.32
37142;BME280;23041;49.816;20.092;2022-09-30T13:52:22;97232.91;;;15.35;68.40
37142;BME280;23041;49.816;20.092;2022-09-30T13:54:51;97230.17;;;15.50;68.45
37142;BME280;23041;49.816;20.092;2022-09-30T13:57:26;97241.93;;;15.64;68.47
37142;BME280;23041;49.816;20.092;2022-09-30T14:00:07;97248.34;;;15.70;68.47
37142;BME280;23041;49.816;20.092;2022-09-30T14:02:58;97241.84;;;15.49;68.43
37142;BME280;23041;49.816;20.092;2022-09-30T14:06:01;97248.22;;;15.41;68.42
37142;BME280;23041;49.816;20.092;2022-09-30T14:08:39;97248.65;;;15.44;68.41
37142;BME280;23041;49.816;20.092;2022-09-30T14:14:38;97248.87;;;15.12;68.29
37142;BME280;23041;49.816;20.092;2022-09-30T14:17:34;97255.66;;;15.06;68.33
37142;BME280;23041;49.816;20.092;2022-09-30T14:20:32;97257.35;;;15.04;68.37
37142;BME280;23041;49.816;20.092;2022-09-30T14:22:57;97250.09;;;14.78;68.47
37142;BME280;23041;49.816;20.092;2022-09-30T14:25:23;97260.23;;;14.81;68.53
37142;BME280;23041;49.816;20.092;2022-09-30T14:28:05;97268.34;;;14.89;68.58
37142;BME280;23041;49.816;20.092;2022-09-30T14:30:40;97272.97;;;14.83;68.60
37142;BME280;23041;49.816;20.092;2022-09-30T14:33:22;97270.82;;;14.83;68.64
37142;BME280;23041;49.816;20.092;2022-09-30T14:38:56;97270.73;;;14.63;68.73
37142;BME280;23041;49.816;20.092;2022-09-30T14:41:24;97281.84;;;14.45;68.78
37142;BME280;23041;49.816;20.092;2022-09-30T14:43:56;97288.42;;;14.52;68.85
37142;BME280;23041;49.816;20.092;2022-09-30T14:49:08;97283.01;;;14.62;68.96
37142;BME280;23041;49.816;20.092;2022-09-30T14:51:40;97289.33;;;14.58;69.01
37142;BME280;23041;49.816;20.092;2022-09-30T14:54:17;97293.63;;;14.50;69.03
37142;BME280;23041;49.816;20.092;2022-09-30T14:56:45;97282.14;;;14.24;69.05
37142;BME280;23041;49.816;20.092;2022-09-30T15:01:51;97282.79;;;14.01;69.23
37142;BME280;23041;49.816;20.092;2022-09-30T15:04:26;97290.14;;;14.13;69.35
37142;BME280;23041;49.816;20.092;2022-09-30T15:06:57;97296.73;;;14.16;69.41
37142;BME280;23041;49.816;20.092;2022-09-30T15:09:36;97296.88;;;14.12;69.43
37142;BME280;23041;49.816;20.092;2022-09-30T15:12:15;97295.95;;;14.20;69.50
37142;BME280;23041;49.816;20.092;2022-09-30T15:14:46;97287.69;;;14.15;69.56
37142;BME280;23041;49.816;20.092;2022-09-30T15:17:29;97280.19;;;14.02;69.58
37142;BME280;23041;49.816;20.092;2022-09-30T15:19:58;97287.54;;;14.01;69.69
37142;BME280;23041;49.816;20.092;2022-09-30T15:22:26;97307.02;;;14.02;69.75
37142;BME280;23041;49.816;20.092;2022-09-30T15:24:55;97309.00;;;14.01;69.79
37142;BME280;23041;49.816;20.092;2022-09-30T15:27:28;97313.14;;;14.01;69.82
37142;BME280;23041;49.816;20.092;2022-09-30T15:29:59;97316.98;;;14.04;69.87
37142;BME280;23041;49.816;20.092;2022-09-30T15:32:30;97324.66;;;14.04;69.91
37142;BME280;23041;49.816;20.092;2022-09-30T15:35:25;97308.10;;;13.81;69.99
37142;BME280;23041;49.816;20.092;2022-09-30T15:37:47;97320.19;;;13.84;70.04
37142;BME280;23041;49.816;20.092;2022-09-30T15:40:19;97318.66;;;13.83;70.06
37142;BME280;23041;49.816;20.092;2022-09-30T15:43:10;97329.69;;;13.83;70.11
37142;BME280;23041;49.816;20.092;2022-09-30T15:45:44;97328.47;;;13.75;70.13
37142;BME280;23041;49.816;20.092;2022-09-30T15:51:00;97327.36;;;13.49;70.26
37142;BME280;23041;49.816;20.092;2022-09-30T15:58:54;97341.47;;;13.56;70.43
37142;BME280;23041;49.816;20.092;2022-09-30T16:01:31;97351.25;;;13.53;70.45
37142;BME280;23041;49.816;20.092;2022-09-30T16:04:21;97357.23;;;13.46;70.50
37142;BME280;23041;49.816;20.092;2022-09-30T16:06:57;97348.64;;;13.40;70.53
37142;BME280;23041;49.816;20.092;2022-09-30T16:09:28;97342.02;;;13.28;70.58
37142;BME280;23041;49.816;20.092;2022-09-30T16:14:51;97348.42;;;13.21;70.78
37142;BME280;23041;49.816;20.092;2022-09-30T16:17:30;97353.66;;;13.28;70.85
37142;BME280;23041;49.816;20.092;2022-09-30T16:20:02;97356.26;;;13.31;70.91
37142;BME280;23041;49.816;20.092;2022-09-30T16:25:26;97361.92;;;13.28;70.97
37142;BME280;23041;49.816;20.092;2022-09-30T16:27:59;97370.96;;;13.28;71.04
37142;BME280;23041;49.816;20.092;2022-09-30T16:30:28;97375.64;;;13.14;71.09
37142;BME280;23041;49.816;20.092;2022-09-30T16:32:58;97392.91;;;13.10;71.15
37142;BME280;23041;49.816;20.092;2022-09-30T16:35:28;97388.30;;;13.12;71.24
37142;BME280;23041;49.816;20.092;2022-09-30T16:38:08;97399.19;;;13.11;71.27
37142;BME280;23041;49.816;20.092;2022-09-30T16:40:34;97402.55;;;13.10;71.29
37142;BME280;23041;49.816;20.092;2022-09-30T16:43:02;97405.19;;;13.14;71.35
37142;BME280;23041;49.816;20.092;2022-09-30T16:45:30;97406.07;;;13.11;71.35
37142;BME280;23041;49.816;20.092;2022-09-30T16:47:58;97405.12;;;13.04;71.38